PABR METAR and TAF weather

Enter ICAO airport designator
Station Type Date Time Source
PABR METAR 2021/05/12 00:53 UTC NOAA

PABR 120053Z 07012KT 10SM OVC005 M08/M11 A3030 RMK AO2 SLP263 T10781106


Station Type Date Time Source
PABR Decoded METAR 2021/05/12 00:53 UTC NOAA

POST ROGERS MEMORIAL AIRPORT, AK, United States (PABR) 71-17N 156-46W 10M
May 11, 2021 - 08:53 PM EDT / 2021.05.12 0053 UTC
Wind: from the ENE (070 degrees) at 14 MPH (12 KT):0
Visibility: 10 mile(s):0
Sky conditions: overcast
Temperature: 18.0 F (-7.8 C)
Windchill: 5 F (-15 C):1
Dew Point: 12.9 F (-10.6 C)
Relative Humidity: 80%
Pressure (altimeter): 30.3 in. Hg (1026 hPa)
ob: PABR 120053Z 07012KT 10SM OVC005 M08/M11 A3030 RMK AO2 SLP263 T10781106
cycle: 1

Station Type Date Time Source
PABR TAF 2021/05/11 20:09 UTC NOAA

TAF
AMD PABR 112006Z 1120/1218 07011KT 3SM BR OVC003
TEMPO 1120/1122 1SM BR
FM112200 08014KT P6SM OVC005
FM120400 08014KT 1SM BR OVC005

Example: see airport list